createdAt,value
2023-01-23T00:01:56.278Z,13.30
2023-01-23T00:04:25.943Z,14.05
2023-01-23T00:06:55.317Z,12.85
2023-01-23T00:09:27.800Z,12.95
2023-01-23T00:11:57.277Z,12.75
2023-01-23T00:14:27.117Z,13.48
2023-01-23T00:16:56.400Z,12.02
2023-01-23T00:19:25.971Z,12.88
2023-01-23T00:21:55.650Z,13.10
2023-01-23T00:24:30.177Z,13.82
2023-01-23T00:27:01.185Z,11.48
2023-01-23T00:29:30.926Z,11.63
2023-01-23T00:32:00.864Z,11.05
2023-01-23T00:34:30.711Z,10.15
2023-01-23T00:37:00.073Z,11.23
2023-01-23T00:39:31.582Z,11.35
2023-01-23T00:42:03.647Z,10.23
2023-01-23T00:44:35.009Z,10.20
2023-01-23T00:47:04.925Z,10.33
2023-01-23T00:49:34.487Z,9.57
2023-01-23T00:52:04.361Z,8.60
2023-01-23T00:54:35.628Z,9.15
2023-01-23T00:57:05.201Z,10.85
2023-01-23T00:59:35.594Z,9.95
2023-01-23T01:02:06.721Z,10.75
2023-01-23T01:04:36.463Z,10.27
2023-01-23T01:07:06.243Z,11.05
2023-01-23T01:09:41.699Z,10.00
2023-01-23T01:12:14.515Z,10.20
2023-01-23T01:14:44.330Z,9.50
2023-01-23T01:17:13.866Z,9.98
2023-01-23T01:19:45.939Z,10.00
2023-01-23T01:22:15.495Z,9.93
2023-01-23T01:24:46.383Z,9.60
2023-01-23T01:27:16.593Z,10.50
2023-01-23T01:29:46.464Z,10.43
2023-01-23T01:32:16.311Z,9.85
2023-01-23T01:34:46.467Z,9.98
2023-01-23T01:37:16.017Z,10.27
2023-01-23T01:39:46.859Z,8.73
2023-01-23T01:42:16.814Z,9.73
2023-01-23T01:44:54.623Z,8.65
2023-01-23T01:47:24.516Z,8.02
2023-01-23T01:49:59.408Z,8.20
2023-01-23T01:52:31.513Z,9.63
2023-01-23T01:55:04.006Z,8.90
2023-01-23T01:57:35.931Z,9.25
2023-01-23T02:00:07.977Z,7.53
2023-01-23T02:02:44.971Z,8.00
2023-01-23T02:05:16.552Z,8.27
2023-01-23T02:07:49.955Z,8.18
2023-01-23T02:10:22.048Z,7.55
2023-01-23T02:12:53.034Z,7.15
2023-01-23T02:15:24.092Z,6.60
2023-01-23T02:17:55.734Z,8.05
2023-01-23T02:20:26.121Z,8.60
2023-01-23T02:23:01.448Z,10.55
2023-01-23T02:25:35.838Z,7.47
2023-01-23T02:28:07.269Z,7.15
2023-01-23T02:30:40.357Z,8.48
2023-01-23T02:33:13.589Z,8.35
2023-01-23T02:35:46.395Z,7.65
2023-01-23T02:38:16.879Z,7.25
2023-01-23T02:40:48.259Z,7.88
2023-01-23T02:43:26.418Z,6.97
2023-01-23T02:46:06.978Z,7.20
2023-01-23T02:48:37.629Z,6.93
2023-01-23T02:51:07.841Z,7.97
2023-01-23T02:53:37.643Z,6.88
2023-01-23T02:56:07.781Z,8.05
2023-01-23T02:58:56.343Z,6.30
2023-01-23T03:01:27.608Z,6.88
2023-01-23T03:04:04.464Z,7.47
2023-01-23T03:06:37.786Z,6.82
2023-01-23T03:09:09.953Z,7.45
2023-01-23T03:11:42.019Z,7.20
2023-01-23T03:14:14.469Z,6.72
2023-01-23T03:16:47.396Z,7.30
2023-01-23T03:19:17.062Z,7.00
2023-01-23T03:21:47.793Z,7.07
2023-01-23T03:24:17.275Z,7.25
2023-01-23T03:26:49.482Z,6.57
2023-01-23T03:29:40.266Z,6.47
2023-01-23T03:32:10.566Z,7.47
2023-01-23T03:34:41.678Z,6.53
2023-01-23T03:37:12.195Z,6.80
2023-01-23T03:40:00.311Z,5.80
2023-01-23T03:42:30.057Z,5.63
2023-01-23T03:45:04.977Z,7.75
2023-01-23T03:47:40.623Z,6.60
2023-01-23T03:50:11.520Z,6.78
2023-01-23T03:52:42.948Z,5.45
2023-01-23T03:55:13.098Z,6.90
2023-01-23T03:57:51.134Z,6.68
2023-01-23T04:00:23.097Z,7.88
2023-01-23T04:03:06.207Z,6.65
2023-01-23T04:05:35.962Z,6.20
2023-01-23T04:08:05.662Z,6.90
2023-01-23T04:10:36.455Z,5.97
2023-01-23T04:13:12.563Z,6.50
2023-01-23T04:15:44.156Z,5.90
2023-01-23T04:18:15.029Z,6.22
2023-01-23T04:20:45.137Z,6.20
2023-01-23T04:23:16.808Z,6.45
2023-01-23T04:25:46.517Z,6.15
2023-01-23T04:28:17.034Z,5.93
2023-01-23T04:31:00.489Z,6.63
2023-01-23T04:33:34.659Z,6.53
2023-01-23T04:36:06.406Z,6.65
2023-01-23T04:38:37.483Z,7.15
2023-01-23T04:41:24.600Z,8.35
2023-01-23T04:44:20.614Z,6.35
2023-01-23T04:47:10.855Z,6.28
2023-01-23T04:49:43.534Z,6.07
2023-01-23T04:52:16.442Z,6.78
2023-01-23T04:54:58.593Z,6.78
2023-01-23T04:57:31.348Z,6.13
2023-01-23T05:00:12.097Z,7.18
2023-01-23T05:02:43.345Z,6.60
2023-01-23T05:05:13.041Z,7.72
2023-01-23T05:07:43.122Z,7.03
2023-01-23T05:10:19.442Z,6.25
2023-01-23T05:15:30.774Z,6.85
2023-01-23T05:18:01.981Z,7.03
2023-01-23T05:20:33.491Z,6.90
2023-01-23T05:23:05.642Z,7.05
2023-01-23T05:25:47.244Z,5.50
2023-01-23T05:28:18.499Z,7.28
2023-01-23T05:30:54.724Z,8.45
2023-01-23T05:33:37.847Z,7.72
2023-01-23T05:36:08.423Z,7.15
2023-01-23T05:38:40.486Z,8.40
2023-01-23T05:41:11.318Z,9.38
2023-01-23T05:44:06.635Z,7.47
2023-01-23T05:46:51.005Z,7.97
2023-01-23T05:49:22.590Z,7.95
2023-01-23T05:51:53.710Z,8.57
2023-01-23T05:54:25.979Z,7.60
2023-01-23T05:56:55.481Z,8.75
2023-01-23T05:59:45.884Z,8.48
2023-01-23T06:02:33.859Z,8.23
2023-01-23T06:05:37.364Z,8.18
2023-01-23T06:08:14.834Z,7.88
2023-01-23T06:10:45.040Z,8.27
2023-01-23T06:13:14.933Z,8.50
2023-01-23T06:15:44.579Z,7.18
2023-01-23T06:18:15.145Z,7.88
2023-01-23T06:20:49.273Z,7.43
2023-01-23T06:23:19.628Z,8.82
2023-01-23T06:25:49.341Z,8.68
2023-01-23T06:28:19.400Z,8.48
2023-01-23T06:30:53.321Z,9.63
2023-01-23T06:34:22.284Z,11.05
2023-01-23T06:37:03.718Z,8.60
2023-01-23T06:42:40.985Z,9.40
2023-01-23T06:45:32.279Z,8.75
2023-01-23T06:48:29.249Z,9.48
2023-01-23T06:51:01.548Z,9.18
2023-01-23T06:53:33.280Z,8.13
2023-01-23T06:56:06.403Z,9.90
2023-01-23T06:58:42.000Z,10.95
2023-01-23T07:01:20.460Z,11.68
2023-01-23T07:04:16.236Z,9.68
2023-01-23T07:06:46.826Z,10.23
2023-01-23T07:12:01.055Z,10.77
2023-01-23T07:14:33.247Z,9.60
2023-01-23T07:17:02.985Z,9.93
2023-01-23T07:19:35.816Z,9.70
2023-01-23T07:22:09.067Z,10.02
2023-01-23T07:24:38.489Z,10.00
2023-01-23T07:27:09.508Z,10.88
2023-01-23T07:29:41.146Z,9.50
2023-01-23T07:32:11.476Z,10.18
2023-01-23T07:34:44.487Z,11.07
2023-01-23T07:37:13.969Z,12.02
2023-01-23T07:39:43.568Z,11.07
2023-01-23T07:42:14.100Z,10.63
2023-01-23T07:47:12.892Z,12.60
2023-01-23T07:49:42.295Z,11.57
2023-01-23T07:52:11.342Z,10.30
2023-01-23T07:54:40.447Z,12.20
2023-01-23T07:57:09.742Z,11.18
2023-01-23T07:59:40.258Z,11.45
2023-01-23T08:02:10.702Z,11.63
2023-01-23T08:04:40.021Z,11.63
2023-01-23T08:07:09.373Z,12.07
2023-01-23T08:09:38.771Z,13.10
2023-01-23T08:12:08.506Z,12.88
2023-01-23T08:14:37.792Z,12.63
2023-01-23T08:17:08.739Z,12.57
2023-01-23T08:19:38.227Z,11.48
2023-01-23T08:22:07.756Z,13.60
2023-01-23T08:24:36.949Z,12.18
2023-01-23T08:27:06.014Z,12.13
2023-01-23T08:29:37.791Z,13.45
2023-01-23T08:32:08.735Z,12.32
2023-01-23T08:34:38.062Z,12.23
2023-01-23T08:37:07.428Z,10.63
2023-01-23T08:39:36.552Z,11.68
2023-01-23T08:42:07.299Z,12.90
2023-01-23T08:44:36.689Z,10.23
2023-01-23T08:47:06.368Z,13.25
2023-01-23T08:49:37.407Z,11.75
2023-01-23T08:52:07.224Z,11.48
2023-01-23T08:54:36.628Z,11.27
2023-01-23T08:57:09.137Z,11.15
2023-01-23T08:59:39.482Z,11.88
2023-01-23T09:02:14.901Z,10.65
2023-01-23T09:04:49.605Z,11.23
2023-01-23T09:07:35.638Z,11.68
2023-01-23T09:10:07.273Z,11.20
2023-01-23T09:15:15.230Z,10.75
2023-01-23T09:17:45.086Z,12.55
2023-01-23T09:20:16.394Z,10.60
2023-01-23T09:22:45.995Z,11.10
2023-01-23T09:25:17.235Z,11.45
2023-01-23T09:27:46.802Z,11.88
2023-01-23T09:30:21.808Z,12.85
2023-01-23T09:32:52.355Z,11.95
2023-01-23T09:35:26.680Z,13.30
2023-01-23T09:38:06.036Z,12.23
2023-01-23T09:40:37.489Z,12.02
2023-01-23T09:43:22.904Z,12.00
2023-01-23T09:45:55.979Z,10.82
2023-01-23T09:48:28.511Z,11.82
2023-01-23T09:51:08.213Z,11.63
2023-01-23T09:53:39.704Z,13.27
2023-01-23T09:56:17.285Z,15.60
2023-01-23T09:58:50.656Z,19.50
2023-01-23T10:01:19.990Z,17.10
2023-01-23T10:03:49.692Z,18.40
2023-01-23T10:06:26.602Z,20.20
2023-01-23T10:09:04.857Z,19.50
2023-01-23T10:11:42.761Z,19.60
2023-01-23T10:14:21.310Z,19.40
2023-01-23T10:16:56.986Z,20.08
2023-01-23T10:19:38.864Z,19.33
2023-01-23T10:22:23.019Z,21.52
2023-01-23T10:24:54.298Z,20.20
2023-01-23T10:27:24.671Z,20.27
2023-01-23T10:29:58.437Z,19.35
2023-01-23T10:32:29.978Z,22.50
2023-01-23T10:35:00.803Z,22.30
2023-01-23T10:37:42.590Z,28.42
2023-01-23T10:40:14.455Z,24.38
2023-01-23T10:42:43.961Z,21.42
2023-01-23T10:45:18.341Z,19.27
2023-01-23T10:47:54.593Z,20.70
2023-01-23T10:50:37.079Z,19.65
2023-01-23T10:53:14.191Z,20.30
2023-01-23T10:55:46.621Z,20.65
2023-01-23T10:58:26.387Z,19.23
2023-01-23T11:00:55.679Z,20.85
2023-01-23T11:03:33.794Z,21.83
2023-01-23T11:06:04.113Z,21.00
2023-01-23T11:08:36.268Z,19.20
2023-01-23T11:11:22.972Z,19.50
2023-01-23T11:14:04.922Z,20.63
2023-01-23T11:16:37.706Z,18.63
2023-01-23T11:19:31.124Z,20.00
2023-01-23T11:22:06.746Z,19.95
2023-01-23T11:24:42.124Z,18.63
2023-01-23T11:27:24.727Z,19.08
2023-01-23T11:30:13.180Z,20.63
2023-01-23T11:32:45.475Z,19.27
2023-01-23T11:35:17.998Z,19.63
2023-01-23T11:37:47.851Z,18.67
2023-01-23T11:40:23.515Z,21.98
2023-01-23T11:42:56.819Z,21.15
2023-01-23T11:45:35.593Z,19.73
2023-01-23T11:48:16.886Z,21.02
2023-01-23T11:50:55.286Z,22.02
2023-01-23T11:53:42.413Z,20.70
2023-01-23T11:56:31.271Z,20.95
2023-01-23T11:59:20.234Z,19.10
2023-01-23T12:02:06.516Z,17.88
2023-01-23T12:05:06.014Z,18.95
2023-01-23T12:07:44.422Z,16.40
2023-01-23T12:10:30.605Z,17.77
2023-01-23T12:13:16.831Z,17.98
2023-01-23T12:16:00.784Z,18.58
2023-01-23T12:18:40.487Z,18.30
2023-01-23T12:21:16.352Z,16.15
2023-01-23T12:24:04.583Z,17.20
2023-01-23T12:27:00.109Z,14.35
2023-01-23T12:29:50.116Z,15.32
2023-01-23T12:32:30.113Z,14.77
2023-01-23T12:35:09.186Z,15.27
2023-01-23T12:37:48.382Z,14.48
2023-01-23T12:40:23.536Z,14.90
2023-01-23T12:42:55.876Z,15.13
2023-01-23T12:45:29.328Z,12.15
2023-01-23T12:48:02.237Z,12.98
2023-01-23T12:50:37.651Z,14.70
2023-01-23T12:53:09.790Z,13.68
2023-01-23T12:55:41.429Z,13.27
2023-01-23T12:58:20.707Z,13.30
2023-01-23T13:01:04.457Z,13.43
2023-01-23T13:03:46.744Z,13.52
2023-01-23T13:06:33.833Z,14.13
2023-01-23T13:09:18.727Z,15.55
2023-01-23T13:12:04.980Z,19.55
2023-01-23T13:15:06.919Z,18.63
2023-01-23T13:17:41.849Z,21.08
2023-01-23T13:20:42.010Z,18.90
2023-01-23T13:23:24.930Z,17.77
2023-01-23T13:26:09.627Z,18.75
2023-01-23T13:28:46.651Z,20.90
2023-01-23T13:31:35.824Z,18.75
2023-01-23T13:34:30.917Z,20.40
2023-01-23T13:37:30.802Z,19.02
2023-01-23T13:40:06.934Z,19.05
2023-01-23T13:42:43.734Z,27.65
2023-01-23T13:45:17.633Z,19.25
2023-01-23T14:21:05.516Z,15.85
2023-01-23T14:23:41.193Z,17.75
2023-01-23T14:26:22.121Z,16.25
2023-01-23T14:28:58.915Z,16.45
2023-01-23T14:31:31.379Z,15.10
2023-01-23T14:34:10.299Z,14.70
2023-01-23T14:36:44.864Z,14.50
2023-01-23T14:39:17.880Z,14.20
2023-01-23T14:42:02.127Z,13.80
2023-01-23T14:44:37.077Z,15.27
2023-01-23T14:47:09.605Z,16.67
2023-01-23T14:49:44.500Z,14.05
2023-01-23T14:52:27.012Z,15.95
2023-01-23T14:55:07.865Z,12.80
2023-01-23T14:57:42.196Z,12.13
2023-01-23T15:00:25.668Z,13.30
2023-01-23T15:03:01.426Z,13.88
2023-01-23T15:05:57.369Z,13.50
2023-01-23T15:08:33.444Z,11.10
2023-01-23T15:11:05.637Z,10.50
2023-01-23T15:13:43.210Z,10.45
2023-01-23T15:16:38.481Z,10.25
2023-01-23T15:19:25.292Z,10.77
2023-01-23T15:22:38.607Z,11.73
2023-01-23T15:25:31.674Z,9.70
2023-01-23T15:28:01.491Z,10.68
2023-01-23T15:30:43.163Z,9.48
2023-01-23T15:33:30.987Z,10.32
2023-01-23T15:36:07.698Z,8.48
2023-01-23T15:38:41.217Z,8.13
2023-01-23T15:41:13.986Z,8.82
2023-01-23T15:43:45.348Z,7.80
2023-01-23T15:46:32.832Z,7.95
2023-01-23T15:49:32.392Z,7.85
2023-01-23T15:52:19.927Z,8.55
2023-01-23T15:54:55.118Z,8.55
2023-01-23T15:57:25.457Z,10.48
2023-01-23T15:59:54.888Z,11.52
2023-01-23T16:02:34.478Z,10.90
2023-01-23T16:05:14.778Z,12.10
2023-01-23T16:07:53.379Z,11.27
2023-01-23T16:10:36.086Z,11.50
2023-01-23T16:13:18.536Z,11.20
2023-01-23T16:15:56.669Z,10.52
2023-01-23T16:18:34.647Z,11.07
2023-01-23T16:21:06.645Z,11.60
2023-01-23T16:23:47.674Z,13.40
2023-01-23T16:26:46.447Z,11.82
2023-01-23T16:29:46.154Z,13.70
2023-01-23T16:32:31.144Z,11.93
2023-01-23T16:35:06.184Z,11.55
2023-01-23T16:37:53.908Z,12.13
2023-01-23T16:40:24.761Z,14.63
2023-01-23T16:43:05.148Z,15.27
2023-01-23T16:45:38.677Z,17.85
2023-01-23T16:48:26.238Z,15.30
2023-01-23T16:51:28.361Z,15.13
2023-01-23T16:54:11.163Z,16.05
2023-01-23T16:57:26.137Z,16.13
2023-01-23T16:59:56.622Z,15.80
2023-01-23T17:02:57.240Z,14.15
2023-01-23T17:05:54.198Z,13.10
2023-01-23T17:08:40.529Z,14.55
2023-01-23T17:11:22.204Z,13.50
2023-01-23T17:14:08.829Z,12.40
2023-01-23T17:16:43.249Z,13.15
2023-01-23T17:19:19.473Z,14.57
2023-01-23T17:21:48.686Z,12.65
2023-01-23T17:24:33.212Z,13.20
2023-01-23T17:27:15.996Z,14.23
2023-01-23T17:30:04.896Z,14.50
2023-01-23T17:32:40.652Z,14.85
2023-01-23T17:35:35.615Z,14.20
2023-01-23T17:38:07.224Z,16.92
2023-01-23T17:41:08.361Z,15.25
2023-01-23T17:43:45.696Z,15.02
2023-01-23T17:49:39.415Z,16.50
2023-01-23T17:52:16.664Z,16.05
2023-01-23T17:54:49.336Z,15.88
2023-01-23T17:57:27.110Z,15.52
2023-01-23T18:00:14.470Z,17.88
2023-01-23T18:03:01.870Z,17.63
2023-01-23T18:09:14.935Z,16.65
2023-01-23T18:11:59.557Z,15.18
2023-01-23T18:14:50.782Z,16.42
2023-01-23T18:17:33.150Z,16.17
2023-01-23T18:20:24.151Z,15.40
2023-01-23T18:22:58.726Z,14.85
2023-01-23T18:25:48.032Z,14.77
2023-01-23T18:28:45.801Z,16.75
2023-01-23T18:31:26.073Z,17.05
2023-01-23T18:34:04.173Z,18.90
2023-01-23T18:37:19.722Z,16.95
2023-01-23T18:39:59.303Z,14.05
2023-01-23T18:42:54.820Z,13.52
2023-01-23T18:45:35.481Z,12.63
2023-01-23T18:48:13.584Z,12.35
2023-01-23T18:51:00.989Z,13.10
2023-01-23T18:53:45.766Z,14.02
2023-01-23T18:56:35.544Z,11.93
2023-01-23T18:59:23.130Z,13.43
2023-01-23T19:02:02.207Z,11.70
2023-01-23T19:04:38.272Z,10.95
2023-01-23T19:07:16.543Z,10.93
2023-01-23T19:09:54.872Z,10.55
2023-01-23T19:12:33.832Z,9.90
2023-01-23T19:15:24.074Z,11.05
2023-01-23T19:18:01.956Z,11.25
2023-01-23T19:23:13.584Z,10.57
2023-01-23T19:25:51.250Z,10.38
2023-01-23T19:28:49.603Z,10.70
2023-01-23T19:31:31.640Z,11.38
2023-01-23T19:36:50.927Z,9.95
2023-01-23T19:39:24.755Z,11.00
2023-01-23T19:41:55.711Z,12.25
2023-01-23T19:44:30.257Z,12.63
2023-01-23T19:47:00.274Z,13.13
2023-01-23T19:49:31.305Z,10.70
2023-01-23T19:52:06.149Z,11.95
2023-01-23T19:54:44.174Z,12.68
2023-01-23T19:57:26.569Z,14.15
2023-01-23T19:59:58.207Z,12.40
2023-01-23T20:02:28.307Z,12.52
2023-01-23T20:04:59.589Z,12.30
2023-01-23T20:07:31.212Z,13.38
2023-01-23T20:10:10.469Z,12.60
2023-01-23T20:12:45.726Z,12.80
2023-01-23T20:15:27.048Z,13.25
2023-01-23T20:18:01.429Z,13.23
2023-01-23T20:20:32.477Z,13.40
2023-01-23T20:23:03.844Z,13.77
2023-01-23T20:25:38.370Z,13.18
2023-01-23T20:28:11.409Z,13.35
2023-01-23T20:30:42.974Z,13.52
2023-01-23T20:33:13.934Z,12.48
2023-01-23T20:35:44.430Z,12.57
2023-01-23T20:38:25.770Z,13.90
2023-01-23T20:41:04.588Z,12.57
2023-01-23T20:43:34.738Z,12.13
2023-01-23T20:46:09.837Z,13.10
2023-01-23T20:48:49.185Z,12.75
2023-01-23T20:53:52.001Z,12.25
2023-01-23T20:56:29.906Z,12.88
2023-01-23T20:59:17.701Z,14.23
2023-01-23T21:02:05.903Z,10.93
2023-01-23T21:04:36.475Z,12.23
2023-01-23T21:07:07.331Z,11.70
2023-01-23T21:09:38.283Z,12.23
2023-01-23T21:12:11.368Z,11.50
2023-01-23T21:14:45.680Z,13.45
2023-01-23T21:17:17.000Z,12.05
2023-01-23T21:19:49.328Z,12.18
2023-01-23T21:22:19.034Z,12.15
2023-01-23T21:24:48.718Z,13.70
2023-01-23T21:27:20.925Z,12.48
2023-01-23T21:29:54.329Z,13.02
2023-01-23T21:32:35.536Z,12.40
2023-01-23T21:35:05.759Z,12.00
2023-01-23T21:37:37.762Z,12.90
2023-01-23T21:40:09.821Z,12.27
2023-01-23T21:45:14.187Z,13.07
2023-01-23T21:47:45.371Z,11.00
2023-01-23T21:50:17.757Z,12.20
2023-01-23T21:52:50.467Z,12.45
2023-01-23T21:55:27.859Z,12.02
2023-01-23T21:58:00.851Z,12.57
2023-01-23T22:00:50.104Z,11.68
2023-01-23T22:03:22.403Z,11.38
2023-01-23T22:05:54.954Z,11.57
2023-01-23T22:08:26.244Z,14.43
2023-01-23T22:10:58.257Z,11.98
2023-01-23T22:13:31.191Z,14.23
2023-01-23T22:16:05.517Z,15.75
2023-01-23T22:18:46.265Z,13.48
2023-01-23T22:21:19.484Z,15.10
2023-01-23T22:24:01.726Z,15.70
2023-01-23T22:26:34.002Z,14.20
2023-01-23T22:29:06.562Z,15.60
2023-01-23T22:31:47.828Z,15.63
2023-01-23T22:34:23.171Z,16.03
2023-01-23T22:36:58.397Z,15.80
2023-01-23T22:39:41.520Z,15.65
2023-01-23T22:42:15.207Z,14.82
2023-01-23T22:44:54.181Z,14.80
2023-01-23T22:47:25.082Z,15.55
2023-01-23T22:50:01.487Z,14.73
2023-01-23T22:52:34.743Z,14.75
2023-01-23T22:55:27.018Z,15.95
2023-01-23T22:57:58.037Z,16.65
2023-01-23T23:00:29.985Z,15.15
2023-01-23T23:02:59.905Z,16.40
2023-01-23T23:05:37.287Z,14.98
2023-01-23T23:08:10.337Z,14.93
2023-01-23T23:10:40.843Z,16.35
2023-01-23T23:13:12.062Z,16.02
2023-01-23T23:15:44.075Z,17.00
2023-01-23T23:18:14.039Z,16.30
2023-01-23T23:20:50.169Z,15.27
2023-01-23T23:23:25.128Z,15.70
2023-01-23T23:25:56.092Z,14.73
2023-01-23T23:28:27.331Z,15.95
2023-01-23T23:31:01.494Z,15.00
2023-01-23T23:33:38.374Z,15.15
2023-01-23T23:36:12.399Z,15.65
2023-01-23T23:38:42.604Z,14.88
2023-01-23T23:41:17.178Z,15.90
2023-01-23T23:43:49.743Z,13.90
2023-01-23T23:46:21.856Z,15.02
2023-01-23T23:51:27.908Z,15.75
2023-01-23T23:53:57.675Z,15.18
2023-01-23T23:56:28.133Z,13.90
2023-01-23T23:58:58.277Z,14.60
